Time;durP1;ratioP1;P1;durP2;ratioP2;P2;SDS_P1;SDS_P2;PMS_P1;PMS_P2;Temp;Humidity;BMP_temperature;BMP_pressure;BME280_temperature;BME280_humidity;BME280_pressure;Samples;Min_cycle;Max_cycle;Signal;HPM_P1;HPM_P2
2021/03/29 00:01:04;;;;;;;461.50;282.70;;;;;;;;;;4968011;28;20030;-77
2021/03/29 00:03:30;;;;;;;458.00;279.50;;;;;;;;;;4968718;28;20605;-77
2021/03/29 00:05:57;;;;;;;471.30;291.98;;;;;;;;;;4974660;28;20113;-78
2021/03/29 00:08:25;;;;;;;464.52;285.17;;;;;;;;;;4993762;28;20042;-77
2021/03/29 00:10:52;;;;;;;468.08;295.60;;;;;;;;;;4973767;28;20011;-77
2021/03/29 00:13:19;;;;;;;463.00;286.80;;;;;;;;;;4990605;28;20088;-77
2021/03/29 00:15:46;;;;;;;473.33;290.30;;;;;;;;;;4973675;28;20030;-79
2021/03/29 00:18:12;;;;;;;463.67;283.42;;;;;;;;;;4969754;28;20038;-78
2021/03/29 00:20:40;;;;;;;461.52;288.40;;;;;;;;;;4971822;28;20410;-77
2021/03/29 00:23:07;;;;;;;472.13;290.33;;;;;;;;;;4971422;28;20034;-78
2021/03/29 00:25:34;;;;;;;470.85;287.98;;;;;;;;;;4971452;28;20041;-78
2021/03/29 00:28:00;;;;;;;467.42;291.85;;;;;;;;;;4972361;28;20113;-77
2021/03/29 00:30:28;;;;;;;461.20;287.45;;;;;;;;;;4969952;28;20023;-78
2021/03/29 00:32:55;;;;;;;464.52;293.40;;;;;;;;;;4973223;28;20035;-78
2021/03/29 00:35:22;;;;;;;461.30;281.60;;;;;;;;;;4969511;28;20022;-78
2021/03/29 00:37:50;;;;;;;475.58;299.00;;;;;;;;;;4968918;28;20439;-77
2021/03/29 00:40:17;;;;;;;468.02;290.38;;;;;;;;;;4971302;28;20446;-78
2021/03/29 00:42:43;;;;;;;472.38;287.30;;;;;;;;;;4969855;28;20062;-77
2021/03/29 00:45:15;;;;;;;470.92;288.42;;;;;;;;;;4971741;28;20030;-78
2021/03/29 00:47:41;;;;;;;466.23;288.50;;;;;;;;;;4997105;28;20022;-78
2021/03/29 00:50:27;;;;;;;460.92;284.60;;;;;;;;;;4970442;28;20027;-78
2021/03/29 00:52:53;;;;;;;468.92;287.27;;;;;;;;;;4995600;28;20045;-80
2021/03/29 00:55:21;;;;;;;468.27;291.20;;;;;;;;;;4969496;28;20634;-78
2021/03/29 00:57:48;;;;;;;462.92;286.58;;;;;;;;;;4971113;28;20045;-78
2021/03/29 01:00:18;;;;;;;468.17;294.65;;;;;;;;;;4968573;28;20022;-77
2021/03/29 01:02:45;;;;;;;469.58;287.08;;;;;;;;;;4969783;28;20038;-78
2021/03/29 01:05:14;;;;;;;468.33;291.70;;;;;;;;;;4971310;28;20050;-78
2021/03/29 01:07:41;;;;;;;471.88;290.05;;;;;;;;;;4972103;28;20030;-78
2021/03/29 01:10:07;;;;;;;469.00;288.05;;;;;;;;;;4989225;28;20037;-78
2021/03/29 01:12:34;;;;;;;464.35;285.05;;;;;;;;;;5009771;28;20022;-78
2021/03/29 01:15:00;;;;;;;464.55;290.38;;;;;;;;;;4989703;28;20135;-78
2021/03/29 01:17:28;;;;;;;469.15;290.55;;;;;;;;;;4986930;28;20041;-78
2021/03/29 01:19:54;;;;;;;469.25;284.05;;;;;;;;;;4991707;28;20084;-78
2021/03/29 01:22:23;;;;;;;469.50;292.10;;;;;;;;;;4989654;28;20049;-79
2021/03/29 01:25:09;;;;;;;462.00;277.65;;;;;;;;;;4991539;28;20026;-78
2021/03/29 01:27:37;;;;;;;466.15;283.42;;;;;;;;;;4985494;28;20045;-78
2021/03/29 01:30:06;;;;;;;473.23;289.27;;;;;;;;;;5013857;28;20445;-78
2021/03/29 01:32:32;;;;;;;469.10;291.73;;;;;;;;;;5015965;28;20030;-77
2021/03/29 01:34:58;;;;;;;469.55;288.17;;;;;;;;;;4984461;28;20665;-78
2021/03/29 01:37:26;;;;;;;475.15;291.25;;;;;;;;;;4984088;28;20036;-78
2021/03/29 01:39:52;;;;;;;469.17;294.40;;;;;;;;;;4990834;28;20025;-78
2021/03/29 01:42:20;;;;;;;474.33;298.42;;;;;;;;;;4988858;28;20034;-77
2021/03/29 01:44:47;;;;;;;469.92;283.75;;;;;;;;;;5007523;28;20022;-77
2021/03/29 01:47:13;;;;;;;469.52;288.90;;;;;;;;;;4988730;28;20143;-78
2021/03/29 01:49:39;;;;;;;471.17;291.05;;;;;;;;;;4986979;28;20061;-78
2021/03/29 01:52:06;;;;;;;473.75;294.92;;;;;;;;;;4992123;28;20037;-77
2021/03/29 01:54:33;;;;;;;468.52;282.95;;;;;;;;;;4987608;28;20018;-78
2021/03/29 01:57:01;;;;;;;470.98;287.45;;;;;;;;;;4992205;28;20045;-78
2021/03/29 01:59:27;;;;;;;476.45;290.80;;;;;;;;;;4986457;28;20025;-78
2021/03/29 02:01:53;;;;;;;471.25;291.50;;;;;;;;;;4989428;28;20045;-78
2021/03/29 02:04:20;;;;;;;478.10;295.35;;;;;;;;;;4990786;28;20040;-78
2021/03/29 02:06:46;;;;;;;469.90;292.08;;;;;;;;;;4987997;28;20029;-77
2021/03/29 02:09:12;;;;;;;474.25;295.83;;;;;;;;;;4986876;28;20058;-78
2021/03/29 02:11:39;;;;;;;472.40;293.65;;;;;;;;;;4986849;28;20030;-77
2021/03/29 02:14:05;;;;;;;461.58;284.35;;;;;;;;;;4987969;28;20025;-78
2021/03/29 02:16:32;;;;;;;466.27;285.83;;;;;;;;;;4988926;28;20096;-77
2021/03/29 02:19:00;;;;;;;468.63;285.52;;;;;;;;;;4983232;28;20549;-79
2021/03/29 02:21:29;;;;;;;468.48;282.52;;;;;;;;;;4987014;28;20737;-79
2021/03/29 02:23:57;;;;;;;468.05;286.85;;;;;;;;;;4990332;28;20487;-78
2021/03/29 02:26:24;;;;;;;460.35;282.10;;;;;;;;;;4983348;28;20030;-78
2021/03/29 02:28:50;;;;;;;470.67;279.27;;;;;;;;;;4982932;28;20034;-78
2021/03/29 02:31:16;;;;;;;465.05;276.85;;;;;;;;;;4989246;28;20026;-77
2021/03/29 02:33:43;;;;;;;460.45;281.63;;;;;;;;;;4989070;28;20068;-78
2021/03/29 02:36:09;;;;;;;463.42;285.10;;;;;;;;;;4988322;28;20033;-78
2021/03/29 02:38:35;;;;;;;466.77;289.17;;;;;;;;;;5007115;28;20018;-78
2021/03/29 02:41:02;;;;;;;461.02;277.92;;;;;;;;;;4988888;28;20029;-79
2021/03/29 02:43:28;;;;;;;458.95;280.02;;;;;;;;;;4986518;28;20120;-78
2021/03/29 02:46:02;;;;;;;458.90;279.95;;;;;;;;;;4990849;28;20033;-78
2021/03/29 02:48:30;;;;;;;461.80;276.73;;;;;;;;;;5013159;28;20022;-77
2021/03/29 02:50:57;;;;;;;457.25;278.13;;;;;;;;;;5010806;28;20091;-78
2021/03/29 02:53:25;;;;;;;468.13;275.95;;;;;;;;;;4991643;28;20021;-77
2021/03/29 02:55:51;;;;;;;465.63;278.02;;;;;;;;;;4988250;28;20032;-77
2021/03/29 02:58:20;;;;;;;456.48;280.88;;;;;;;;;;4988132;28;20033;-78
2021/03/29 03:00:46;;;;;;;461.00;280.13;;;;;;;;;;4986956;28;20088;-80
2021/03/29 03:03:12;;;;;;;453.00;273.58;;;;;;;;;;4990647;28;20026;-78
2021/03/29 03:05:39;;;;;;;462.00;286.77;;;;;;;;;;4989113;28;20083;-76
2021/03/29 03:08:07;;;;;;;453.90;276.23;;;;;;;;;;4985286;28;20105;-78
2021/03/29 03:10:34;;;;;;;464.48;285.35;;;;;;;;;;4989161;28;20022;-77
2021/03/29 03:13:02;;;;;;;461.63;277.30;;;;;;;;;;4989803;28;20686;-77
2021/03/29 03:15:28;;;;;;;462.13;283.00;;;;;;;;;;4988852;28;20101;-78
2021/03/29 03:17:55;;;;;;;456.40;280.15;;;;;;;;;;4988082;28;20058;-77
2021/03/29 03:20:21;;;;;;;462.77;282.67;;;;;;;;;;4987625;28;20022;-77
2021/03/29 03:22:51;;;;;;;462.38;278.55;;;;;;;;;;5010525;28;20083;-78
2021/03/29 03:25:18;;;;;;;461.23;278.77;;;;;;;;;;4990600;28;20113;-78
2021/03/29 03:27:45;;;;;;;460.73;281.90;;;;;;;;;;4991603;28;20038;-77
2021/03/29 03:30:22;;;;;;;463.58;288.27;;;;;;;;;;5016113;28;20168;-78
2021/03/29 03:32:48;;;;;;;455.77;276.52;;;;;;;;;;4991871;28;20117;-78
2021/03/29 03:35:16;;;;;;;462.35;283.10;;;;;;;;;;5008816;28;20509;-78
2021/03/29 03:37:44;;;;;;;465.60;281.80;;;;;;;;;;4987824;28;20045;-78
2021/03/29 03:40:10;;;;;;;458.33;278.23;;;;;;;;;;4993128;28;20084;-78
2021/03/29 03:42:36;;;;;;;467.33;288.85;;;;;;;;;;4986091;28;20125;-78
2021/03/29 03:45:04;;;;;;;467.02;280.90;;;;;;;;;;4992855;28;20025;-77
2021/03/29 03:47:30;;;;;;;457.92;281.05;;;;;;;;;;4989440;28;20034;-79
2021/03/29 03:49:56;;;;;;;455.63;271.70;;;;;;;;;;4989584;28;20172;-78
2021/03/29 03:52:22;;;;;;;460.95;286.60;;;;;;;;;;4989911;28;20025;-78
2021/03/29 03:54:50;;;;;;;465.00;276.85;;;;;;;;;;4996125;28;20354;-77
2021/03/29 03:57:16;;;;;;;463.02;277.30;;;;;;;;;;4991134;28;20373;-78
2021/03/29 03:59:43;;;;;;;466.42;281.95;;;;;;;;;;4986879;28;20026;-78
2021/03/29 04:02:09;;;;;;;459.42;280.98;;;;;;;;;;4989669;28;20025;-78
2021/03/29 04:04:35;;;;;;;461.02;284.70;;;;;;;;;;4992603;28;20341;-78
2021/03/29 04:07:02;;;;;;;456.17;284.33;;;;;;;;;;4992468;28;20154;-78
2021/03/29 04:09:39;;;;;;;458.42;279.58;;;;;;;;;;4992674;28;20373;-78
2021/03/29 04:12:08;;;;;;;469.85;285.13;;;;;;;;;;4983422;28;20029;-78
2021/03/29 04:14:34;;;;;;;464.17;284.70;;;;;;;;;;5016519;28;20033;-79
2021/03/29 04:17:00;;;;;;;460.35;283.45;;;;;;;;;;5019305;28;20490;-79
2021/03/29 04:19:26;;;;;;;462.25;279.52;;;;;;;;;;4994251;28;20009;-77
2021/03/29 04:21:52;;;;;;;459.65;277.20;;;;;;;;;;4992606;28;20039;-77
2021/03/29 04:24:18;;;;;;;462.95;279.33;;;;;;;;;;4991153;28;20526;-78
2021/03/29 04:26:45;;;;;;;465.75;282.83;;;;;;;;;;4989837;28;20053;-77
2021/03/29 04:29:11;;;;;;;460.45;283.75;;;;;;;;;;4993739;28;20045;-78
2021/03/29 04:31:37;;;;;;;457.92;279.73;;;;;;;;;;4991071;28;20068;-78
2021/03/29 04:34:03;;;;;;;463.73;274.25;;;;;;;;;;4987940;28;20579;-78
2021/03/29 04:36:29;;;;;;;456.42;272.08;;;;;;;;;;4992298;28;20087;-78
2021/03/29 04:38:55;;;;;;;459.15;276.42;;;;;;;;;;4991922;28;20056;-78
2021/03/29 04:41:21;;;;;;;458.60;274.13;;;;;;;;;;4993187;28;20350;-78
2021/03/29 04:43:47;;;;;;;458.17;280.80;;;;;;;;;;4987405;28;20682;-78
2021/03/29 04:46:13;;;;;;;471.30;281.60;;;;;;;;;;4990804;28;20037;-77
2021/03/29 04:48:39;;;;;;;471.95;281.00;;;;;;;;;;4983762;28;20034;-77
2021/03/29 04:51:06;;;;;;;468.33;274.20;;;;;;;;;;4989773;28;20014;-77
2021/03/29 04:53:32;;;;;;;474.20;288.10;;;;;;;;;;5006937;28;20045;-77
2021/03/29 04:55:57;;;;;;;460.25;284.73;;;;;;;;;;4990762;28;20037;-79
2021/03/29 04:58:23;;;;;;;455.42;278.08;;;;;;;;;;4990953;28;20438;-78
2021/03/29 05:00:49;;;;;;;458.58;278.70;;;;;;;;;;4991920;28;20403;-79
2021/03/29 05:03:15;;;;;;;450.20;277.67;;;;;;;;;;4989798;28;20038;-78
2021/03/29 05:05:41;;;;;;;450.85;278.15;;;;;;;;;;4991535;28;20018;-77
2021/03/29 05:08:07;;;;;;;455.27;272.45;;;;;;;;;;4985258;28;20096;-78
2021/03/29 05:10:35;;;;;;;454.55;278.27;;;;;;;;;;4993187;28;20494;-79
2021/03/29 05:13:01;;;;;;;450.95;280.45;;;;;;;;;;4988503;28;20030;-78
2021/03/29 05:15:27;;;;;;;460.30;283.98;;;;;;;;;;4991060;28;20085;-79
2021/03/29 05:17:53;;;;;;;445.48;271.73;;;;;;;;;;4991323;28;20457;-77
2021/03/29 05:20:19;;;;;;;451.63;274.23;;;;;;;;;;4987956;28;20061;-78
2021/03/29 05:22:45;;;;;;;450.00;276.50;;;;;;;;;;4988870;28;20057;-79
2021/03/29 05:25:11;;;;;;;448.90;269.27;;;;;;;;;;4990294;28;20041;-78
2021/03/29 05:27:37;;;;;;;449.90;278.92;;;;;;;;;;4991366;28;20042;-78
2021/03/29 05:30:04;;;;;;;445.63;271.20;;;;;;;;;;4991776;28;20033;-78
2021/03/29 05:32:30;;;;;;;454.25;273.65;;;;;;;;;;4989680;28;20454;-79
2021/03/29 05:34:57;;;;;;;443.58;265.77;;;;;;;;;;4992761;28;20461;-78
2021/03/29 05:37:23;;;;;;;447.70;275.92;;;;;;;;;;4991267;28;20050;-79
2021/03/29 05:39:50;;;;;;;447.90;276.27;;;;;;;;;;4990732;28;20117;-78
2021/03/29 05:42:17;;;;;;;444.77;269.25;;;;;;;;;;4985340;28;20034;-77
2021/03/29 05:44:43;;;;;;;439.65;268.27;;;;;;;;;;5015693;28;20248;-78
2021/03/29 05:47:09;;;;;;;443.10;273.45;;;;;;;;;;4989802;28;20042;-78
2021/03/29 05:49:35;;;;;;;436.38;267.98;;;;;;;;;;4989965;28;20458;-79
2021/03/29 05:52:01;;;;;;;440.33;264.75;;;;;;;;;;4987820;28;20013;-79
2021/03/29 05:54:28;;;;;;;447.83;284.00;;;;;;;;;;4985704;28;20026;-78
2021/03/29 05:56:54;;;;;;;449.38;267.48;;;;;;;;;;4988897;28;20033;-79
2021/03/29 06:01:58;;;;;;;438.08;269.90;;;;;;;;;;5006832;28;20034;-77
2021/03/29 06:04:44;;;;;;;445.05;270.67;;;;;;;;;;4987598;28;20037;-77
2021/03/29 06:07:18;;;;;;;440.55;265.17;;;;;;;;;;4991606;28;20034;-77
2021/03/29 06:09:44;;;;;;;434.20;264.15;;;;;;;;;;4983403;28;20053;-77
2021/03/29 06:12:11;;;;;;;443.58;267.70;;;;;;;;;;4976445;28;20026;-78
2021/03/29 06:14:37;;;;;;;440.23;272.15;;;;;;;;;;4973511;28;20233;-78
2021/03/29 06:17:07;;;;;;;445.25;279.67;;;;;;;;;;4974062;28;20166;-78
2021/03/29 06:19:35;;;;;;;;;;;;;;;;;;4981280;28;20041;-78
2021/03/29 06:22:07;;;;;;;434.98;264.20;;;;;;;;;;5017676;28;19920;-78
2021/03/29 06:24:53;;;;;;;446.25;275.70;;;;;;;;;;4987390;28;20149;-77
2021/03/29 06:27:20;;;;;;;456.45;274.55;;;;;;;;;;4981141;28;20469;-79
2021/03/29 06:29:47;;;;;;;442.75;276.73;;;;;;;;;;4973309;28;20053;-78
2021/03/29 06:32:19;;;;;;;443.45;270.45;;;;;;;;;;4977325;28;20034;-78
2021/03/29 06:34:49;;;;;;;439.88;270.55;;;;;;;;;;4981195;28;20450;-78
2021/03/29 06:37:18;;;;;;;439.63;272.77;;;;;;;;;;4990969;28;20034;-78
2021/03/29 06:39:45;;;;;;;439.10;271.52;;;;;;;;;;4986512;28;20019;-78
2021/03/29 06:42:11;;;;;;;449.83;280.05;;;;;;;;;;4977433;28;20034;-79
2021/03/29 06:44:38;;;;;;;439.23;277.40;;;;;;;;;;4988899;28;20030;-77
2021/03/29 06:47:05;;;;;;;442.58;275.83;;;;;;;;;;4991900;28;20038;-78
2021/03/29 06:49:40;;;;;;;441.80;279.27;;;;;;;;;;4989028;28;20116;-77
2021/03/29 06:52:26;;;;;;;441.23;274.40;;;;;;;;;;4994707;28;20112;-78
2021/03/29 06:54:52;;;;;;;448.63;286.92;;;;;;;;;;4983618;28;20121;-77
2021/03/29 06:57:29;;;;;;;438.85;278.40;;;;;;;;;;4980915;28;20026;-77
2021/03/29 06:59:55;;;;;;;446.80;283.35;;;;;;;;;;4982173;28;20026;-76
2021/03/29 07:02:40;;;;;;;443.95;284.63;;;;;;;;;;4989442;28;20069;-77
2021/03/29 07:05:07;;;;;;;447.55;282.00;;;;;;;;;;4975748;28;20054;-77
2021/03/29 07:07:34;;;;;;;445.48;290.08;;;;;;;;;;4991984;28;20515;-80
2021/03/29 07:10:01;;;;;;;441.42;295.42;;;;;;;;;;4994293;28;20127;-78
2021/03/29 07:12:31;;;;;;;441.00;297.55;;;;;;;;;;4995524;28;20032;-77
2021/03/29 07:14:58;;;;;;;446.23;300.13;;;;;;;;;;4990010;28;20036;-78
2021/03/29 07:17:26;;;;;;;441.52;300.20;;;;;;;;;;4987859;28;20133;-78
2021/03/29 07:19:53;;;;;;;449.33;303.60;;;;;;;;;;4989562;28;20040;-78
2021/03/29 07:22:20;;;;;;;442.13;304.65;;;;;;;;;;4994851;28;20057;-78
2021/03/29 07:24:46;;;;;;;442.55;306.42;;;;;;;;;;4988662;28;20507;-77
2021/03/29 07:27:14;;;;;;;443.98;307.83;;;;;;;;;;4984608;28;20042;-77
2021/03/29 07:29:46;;;;;;;457.67;319.23;;;;;;;;;;4982338;28;20026;-77
2021/03/29 07:32:32;;;;;;;447.55;304.45;;;;;;;;;;4994818;28;20057;-77
2021/03/29 07:34:58;;;;;;;454.27;314.45;;;;;;;;;;4991981;28;20038;-78
2021/03/29 07:37:27;;;;;;;454.27;312.13;;;;;;;;;;4996411;28;20022;-77
2021/03/29 07:39:53;;;;;;;446.67;309.38;;;;;;;;;;4991297;28;20026;-77
2021/03/29 07:42:25;;;;;;;449.23;316.42;;;;;;;;;;4985596;28;20061;-77
2021/03/29 07:44:55;;;;;;;452.52;317.73;;;;;;;;;;4989127;28;20053;-78
2021/03/29 07:47:40;;;;;;;451.42;318.75;;;;;;;;;;4987141;28;20441;-77
2021/03/29 07:50:07;;;;;;;456.05;313.42;;;;;;;;;;4983511;28;20041;-77
2021/03/29 07:52:35;;;;;;;453.60;316.85;;;;;;;;;;4994234;28;20470;-77
2021/03/29 07:55:04;;;;;;;456.20;323.10;;;;;;;;;;4992638;28;20339;-77
2021/03/29 07:57:39;;;;;;;448.52;318.05;;;;;;;;;;4983311;28;20085;-77
2021/03/29 08:00:05;;;;;;;452.02;330.15;;;;;;;;;;4982447;28;20076;-80
2021/03/29 08:02:32;;;;;;;450.05;326.08;;;;;;;;;;4989426;28;20049;-77
2021/03/29 08:05:06;;;;;;;448.27;325.25;;;;;;;;;;5016701;28;20022;-77
2021/03/29 08:07:36;;;;;;;456.42;321.33;;;;;;;;;;5004463;28;20041;-77
2021/03/29 08:10:03;;;;;;;451.08;324.25;;;;;;;;;;4982930;28;20636;-77
2021/03/29 08:12:32;;;;;;;451.25;329.33;;;;;;;;;;5005941;28;20058;-80
2021/03/29 08:14:59;;;;;;;458.73;335.83;;;;;;;;;;4979996;28;20408;-76
2021/03/29 08:17:42;;;;;;;455.63;338.83;;;;;;;;;;4993963;28;20095;-77
2021/03/29 08:20:21;;;;;;;462.58;346.38;;;;;;;;;;4989496;28;20032;-76
2021/03/29 08:23:07;;;;;;;457.42;348.75;;;;;;;;;;4980781;28;20624;-79
2021/03/29 08:25:33;;;;;;;464.08;356.73;;;;;;;;;;4979412;28;20331;-77
2021/03/29 08:27:59;;;;;;;464.50;364.13;;;;;;;;;;4987620;28;20704;-77
2021/03/29 08:30:26;;;;;;;462.58;366.60;;;;;;;;;;4994760;28;20097;-76
2021/03/29 08:33:08;;;;;;;457.83;365.15;;;;;;;;;;4992170;28;20022;-77
2021/03/29 08:35:34;;;;;;;463.02;366.40;;;;;;;;;;4987128;28;20041;-77
2021/03/29 08:38:06;;;;;;;465.08;374.25;;;;;;;;;;4986150;28;20611;-77
2021/03/29 08:40:33;;;;;;;464.20;371.20;;;;;;;;;;4990155;28;20052;-76
2021/03/29 08:43:08;;;;;;;467.05;373.23;;;;;;;;;;4982682;28;20022;-78
2021/03/29 08:45:34;;;;;;;462.45;368.90;;;;;;;;;;4989622;28;20498;-77
2021/03/29 08:48:02;;;;;;;461.00;368.98;;;;;;;;;;4980543;28;20152;-77
2021/03/29 08:50:34;;;;;;;472.80;378.02;;;;;;;;;;4976564;28;20034;-76
2021/03/29 08:53:09;;;;;;;462.35;371.30;;;;;;;;;;4981857;28;20160;-79
2021/03/29 08:55:39;;;;;;;473.98;383.05;;;;;;;;;;4993176;28;20462;-77
2021/03/29 08:58:06;;;;;;;472.60;389.60;;;;;;;;;;4987265;28;20022;-77
2021/03/29 09:00:34;;;;;;;476.02;393.55;;;;;;;;;;5006831;28;20022;-77
2021/03/29 09:03:00;;;;;;;472.65;394.45;;;;;;;;;;5016356;28;20032;-76
2021/03/29 09:05:27;;;;;;;472.65;390.23;;;;;;;;;;4992575;28;20332;-76
2021/03/29 09:07:53;;;;;;;465.02;386.50;;;;;;;;;;4979128;28;20642;-77
2021/03/29 09:10:19;;;;;;;461.52;380.00;;;;;;;;;;4993552;28;20057;-78
2021/03/29 09:12:46;;;;;;;473.60;389.65;;;;;;;;;;4989688;28;20115;-78
2021/03/29 09:15:13;;;;;;;464.52;384.13;;;;;;;;;;4988226;28;20032;-76
2021/03/29 09:17:39;;;;;;;471.60;384.70;;;;;;;;;;4983930;28;20092;-77
2021/03/29 09:20:16;;;;;;;463.95;381.08;;;;;;;;;;4977914;28;20034;-77
2021/03/29 09:22:43;;;;;;;471.20;381.88;;;;;;;;;;4985004;28;20466;-77
2021/03/29 09:25:10;;;;;;;472.17;383.55;;;;;;;;;;4984148;28;20117;-77
2021/03/29 09:27:40;;;;;;;462.08;376.42;;;;;;;;;;4990802;28;20037;-78
2021/03/29 09:30:08;;;;;;;460.13;373.42;;;;;;;;;;4983703;28;20037;-78
2021/03/29 09:32:35;;;;;;;457.90;369.13;;;;;;;;;;4991345;28;20038;-76
2021/03/29 09:35:01;;;;;;;464.15;377.75;;;;;;;;;;4992278;28;20141;-78
2021/03/29 09:37:28;;;;;;;463.80;375.25;;;;;;;;;;4997074;28;20469;-78
2021/03/29 09:40:01;;;;;;;467.13;383.33;;;;;;;;;;4986823;28;20019;-77
2021/03/29 09:42:36;;;;;;;468.73;385.45;;;;;;;;;;4992621;28;20038;-79
2021/03/29 09:45:05;;;;;;;464.33;390.50;;;;;;;;;;4989111;28;20084;-78
2021/03/29 09:47:31;;;;;;;467.65;399.13;;;;;;;;;;4983120;28;20191;-78
2021/03/29 09:49:57;;;;;;;473.42;408.00;;;;;;;;;;4980151;28;20030;-77
2021/03/29 09:52:33;;;;;;;468.77;409.42;;;;;;;;;;4985753;28;21157;-76
2021/03/29 09:54:59;;;;;;;448.08;398.83;;;;;;;;;;4983169;28;20018;-77
2021/03/29 09:57:27;;;;;;;454.42;404.90;;;;;;;;;;5017386;28;20052;-77
2021/03/29 09:59:53;;;;;;;464.52;413.70;;;;;;;;;;4982168;28;20037;-77
2021/03/29 10:02:29;;;;;;;454.98;404.85;;;;;;;;;;4984286;28;20064;-80
2021/03/29 10:05:06;;;;;;;467.63;417.67;;;;;;;;;;4982239;28;20023;-78
2021/03/29 10:07:33;;;;;;;478.17;427.20;;;;;;;;;;4979225;28;20129;-81
2021/03/29 10:10:04;;;;;;;476.02;425.58;;;;;;;;;;4990201;28;20136;-78
2021/03/29 10:12:31;;;;;;;480.58;430.02;;;;;;;;;;4972740;28;20038;-78
2021/03/29 10:15:08;;;;;;;481.98;431.95;;;;;;;;;;4982614;28;20551;-78
2021/03/29 10:17:34;;;;;;;483.45;433.33;;;;;;;;;;4993026;28;20026;-78
2021/03/29 10:20:07;;;;;;;488.95;438.42;;;;;;;;;;4983990;28;20144;-79
2021/03/29 10:22:33;;;;;;;486.35;436.27;;;;;;;;;;4986132;28;20107;-79
2021/03/29 10:25:01;;;;;;;485.75;435.35;;;;;;;;;;4988684;28;20015;-80
2021/03/29 10:27:47;;;;;;;486.80;436.05;;;;;;;;;;4979949;28;20076;-79
2021/03/29 10:30:22;;;;;;;487.85;437.23;;;;;;;;;;4970939;28;20041;-79
2021/03/29 10:32:52;;;;;;;489.38;438.83;;;;;;;;;;4989622;28;20018;-78
2021/03/29 10:35:20;;;;;;;478.25;428.85;;;;;;;;;;4980730;28;20038;-77
2021/03/29 10:37:46;;;;;;;483.10;432.70;;;;;;;;;;4993766;28;20034;-77
2021/03/29 10:40:13;;;;;;;480.58;430.33;;;;;;;;;;4990940;28;20026;-77
2021/03/29 10:42:40;;;;;;;470.67;421.25;;;;;;;;;;4985448;28;20050;-79
2021/03/29 10:45:16;;;;;;;470.88;421.00;;;;;;;;;;4990837;28;20026;-78
2021/03/29 10:47:42;;;;;;;461.85;412.23;;;;;;;;;;4988369;28;20540;-77
2021/03/29 10:50:09;;;;;;;454.00;404.80;;;;;;;;;;4981725;28;20038;-80
2021/03/29 10:52:36;;;;;;;458.30;408.88;;;;;;;;;;4982751;28;20038;-77
2021/03/29 10:55:02;;;;;;;468.08;417.48;;;;;;;;;;4980430;28;20037;-77
2021/03/29 10:57:34;;;;;;;468.95;418.60;;;;;;;;;;4991373;28;20018;-83
2021/03/29 11:00:00;;;;;;;471.08;421.33;;;;;;;;;;4994753;28;20033;-81
2021/03/29 11:02:29;;;;;;;470.17;420.42;;;;;;;;;;4992090;28;20018;-82
2021/03/29 11:04:55;;;;;;;464.40;414.45;;;;;;;;;;4983116;28;20117;-79
2021/03/29 11:07:21;;;;;;;456.63;407.10;;;;;;;;;;4986513;28;20125;-77
2021/03/29 11:09:47;;;;;;;446.77;397.52;;;;;;;;;;4971285;28;20061;-78
2021/03/29 11:12:13;;;;;;;445.38;392.80;;;;;;;;;;4998098;28;20029;-78
2021/03/29 11:14:39;;;;;;;448.00;397.60;;;;;;;;;;4989260;28;20393;-78
2021/03/29 11:17:06;;;;;;;445.75;395.38;;;;;;;;;;4990435;28;20037;-78
2021/03/29 11:19:32;;;;;;;450.58;400.83;;;;;;;;;;4991381;28;20014;-78
2021/03/29 11:21:58;;;;;;;454.67;404.85;;;;;;;;;;4989441;28;20048;-78
2021/03/29 11:24:24;;;;;;;457.40;407.58;;;;;;;;;;4991028;28;20033;-79
2021/03/29 11:26:50;;;;;;;454.20;405.33;;;;;;;;;;4972326;28;20054;-79
2021/03/29 11:29:17;;;;;;;455.50;405.95;;;;;;;;;;4975402;28;20093;-80
2021/03/29 11:31:43;;;;;;;454.30;405.05;;;;;;;;;;4977121;28;20058;-78
2021/03/29 11:34:10;;;;;;;455.95;406.45;;;;;;;;;;4986714;28;20033;-76
2021/03/29 11:36:36;;;;;;;455.05;405.05;;;;;;;;;;4977797;28;20390;-76
2021/03/29 11:39:04;;;;;;;455.80;405.60;;;;;;;;;;4975607;28;20038;-78
2021/03/29 11:41:31;;;;;;;458.30;408.88;;;;;;;;;;4992561;28;20084;-79
2021/03/29 11:43:57;;;;;;;463.10;413.75;;;;;;;;;;4995273;28;20034;-77
2021/03/29 11:46:23;;;;;;;455.98;406.38;;;;;;;;;;4992591;28;20109;-78
2021/03/29 11:48:48;;;;;;;469.63;419.10;;;;;;;;;;4988006;28;20045;-78
2021/03/29 11:51:14;;;;;;;467.25;417.13;;;;;;;;;;4983882;28;20038;-78
2021/03/29 11:53:41;;;;;;;474.45;424.70;;;;;;;;;;4975438;28;20458;-79
2021/03/29 11:56:07;;;;;;;479.85;429.30;;;;;;;;;;4977814;28;20117;-80
2021/03/29 11:58:33;;;;;;;479.13;429.33;;;;;;;;;;4985164;28;20053;-79
2021/03/29 12:01:12;;;;;;;480.75;430.67;;;;;;;;;;4975455;28;20028;-79
2021/03/29 12:03:47;;;;;;;475.00;425.33;;;;;;;;;;4976526;28;20035;-80
2021/03/29 12:06:23;;;;;;;482.10;432.02;;;;;;;;;;4994018;28;20033;-80
2021/03/29 12:14:02;;;;;;;509.10;457.88;;;;;;;;;;4999406;28;20045;-76
2021/03/29 12:16:32;;;;;;;521.70;469.83;;;;;;;;;;5003139;28;20022;-78
2021/03/29 12:18:59;;;;;;;512.30;461.73;;;;;;;;;;4993831;28;20033;-78
2021/03/29 12:21:26;;;;;;;536.05;484.02;;;;;;;;;;4989827;28;20033;-80
2021/03/29 12:23:53;;;;;;;526.25;475.20;;;;;;;;;;4991662;28;20374;-79
2021/03/29 12:26:22;;;;;;;537.17;485.13;;;;;;;;;;4991036;28;20022;-79
2021/03/29 12:28:50;;;;;;;524.58;473.73;;;;;;;;;;4992065;28;20144;-80
2021/03/29 12:31:17;;;;;;;528.42;477.10;;;;;;;;;;4994745;28;20088;-79
2021/03/29 12:33:43;;;;;;;519.97;468.85;;;;;;;;;;4990936;28;20037;-78
2021/03/29 12:36:10;;;;;;;512.72;461.45;;;;;;;;;;4994917;28;20450;-79
2021/03/29 12:38:39;;;;;;;499.48;448.45;;;;;;;;;;5007688;28;20178;-78
2021/03/29 12:41:06;;;;;;;488.60;437.45;;;;;;;;;;4975178;28;20023;-78
2021/03/29 12:43:40;;;;;;;476.25;424.85;;;;;;;;;;4975043;28;20030;-77
2021/03/29 12:46:07;;;;;;;464.90;414.27;;;;;;;;;;4978276;28;20034;-77
2021/03/29 12:48:35;;;;;;;475.65;423.42;;;;;;;;;;4981604;28;20265;-79
2021/03/29 12:51:02;;;;;;;457.67;405.80;;;;;;;;;;5007570;28;20025;-78
2021/03/29 12:53:29;;;;;;;457.40;404.30;;;;;;;;;;5006922;28;20023;-80
2021/03/29 12:55:55;;;;;;;462.73;403.08;;;;;;;;;;5006466;28;20043;-78
2021/03/29 12:58:22;;;;;;;473.25;404.30;;;;;;;;;;5007089;28;20037;-79
2021/03/29 13:00:49;;;;;;;470.30;403.65;;;;;;;;;;5007880;28;20073;-78
2021/03/29 13:03:17;;;;;;;466.15;398.35;;;;;;;;;;5018902;28;20018;-79
2021/03/29 13:08:15;;;;;;;473.25;404.15;;;;;;;;;;4992560;28;20977;-77
2021/03/29 13:13:10;;;;;;;468.98;397.88;;;;;;;;;;4981837;28;20744;-77
2021/03/29 13:15:36;;;;;;;471.50;395.80;;;;;;;;;;4990946;28;20517;-78
2021/03/29 13:18:02;;;;;;;463.10;394.35;;;;;;;;;;4973913;28;20129;-76
2021/03/29 13:20:29;;;;;;;462.48;394.42;;;;;;;;;;4982356;28;20030;-76
2021/03/29 13:22:55;;;;;;;470.80;396.65;;;;;;;;;;4968915;28;20030;-77
2021/03/29 13:25:22;;;;;;;465.00;395.23;;;;;;;;;;4959152;28;20033;-77
2021/03/29 13:27:49;;;;;;;471.15;397.40;;;;;;;;;;4963117;28;20433;-77
2021/03/29 13:30:16;;;;;;;466.45;393.75;;;;;;;;;;4964679;28;20050;-76
2021/03/29 13:32:42;;;;;;;462.73;386.90;;;;;;;;;;4962723;28;20649;-77
2021/03/29 13:35:08;;;;;;;474.67;402.92;;;;;;;;;;4959723;28;20027;-78
2021/03/29 13:37:35;;;;;;;471.23;394.92;;;;;;;;;;4959755;28;20042;-78
2021/03/29 13:40:01;;;;;;;470.88;394.02;;;;;;;;;;4964019;28;20034;-78
2021/03/29 13:42:28;;;;;;;473.88;402.42;;;;;;;;;;4961913;28;20113;-78
2021/03/29 13:44:54;;;;;;;467.15;399.50;;;;;;;;;;4973118;28;20395;-78
2021/03/29 13:47:21;;;;;;;468.98;396.88;;;;;;;;;;4974145;28;20026;-77
2021/03/29 13:49:47;;;;;;;472.45;400.50;;;;;;;;;;4990363;28;20018;-77
2021/03/29 13:52:14;;;;;;;463.48;392.90;;;;;;;;;;4973722;28;20165;-77
2021/03/29 13:54:40;;;;;;;462.55;390.55;;;;;;;;;;4972583;28;20023;-77
2021/03/29 13:57:07;;;;;;;466.35;395.77;;;;;;;;;;4973502;28;20455;-78
2021/03/29 13:59:33;;;;;;;463.50;386.40;;;;;;;;;;4973321;28;20041;-77
2021/03/29 14:02:03;;;;;;;463.25;391.08;;;;;;;;;;4973641;28;20045;-76
2021/03/29 14:04:29;;;;;;;461.55;386.92;;;;;;;;;;4973178;28;20373;-78
2021/03/29 14:06:55;;;;;;;458.13;390.20;;;;;;;;;;4973020;28;20437;-77
2021/03/29 14:09:25;;;;;;;462.25;390.65;;;;;;;;;;4972797;28;20133;-77
2021/03/29 14:11:51;;;;;;;463.92;390.08;;;;;;;;;;4972359;28;20322;-77